sensor_id;sensor_type;location;lat;lon;timestamp;P1;durP1;ratioP1;P2;durP2;ratioP2
13185;SDS011;6658;53.080;7.428;2022-12-18T00:03:58;47.00;;;24.63;;
13185;SDS011;6658;53.080;7.428;2022-12-18T00:06:25;50.40;;;26.87;;
13185;SDS011;6658;53.080;7.428;2022-12-18T00:08:52;52.80;;;27.77;;
13185;SDS011;6658;53.080;7.428;2022-12-18T00:11:20;46.20;;;25.37;;
13185;SDS011;6658;53.080;7.428;2022-12-18T00:13:48;51.87;;;26.07;;
13185;SDS011;6658;53.080;7.428;2022-12-18T00:16:15;51.37;;;25.17;;
13185;SDS011;6658;53.080;7.428;2022-12-18T00:18:45;48.73;;;25.43;;
13185;SDS011;6658;53.080;7.428;2022-12-18T00:21:11;43.70;;;24.23;;
13185;SDS011;6658;53.080;7.428;2022-12-18T00:23:38;46.13;;;24.70;;
13185;SDS011;6658;53.080;7.428;2022-12-18T00:26:07;42.97;;;24.67;;
13185;SDS011;6658;53.080;7.428;2022-12-18T00:28:41;46.03;;;25.53;;
13185;SDS011;6658;53.080;7.428;2022-12-18T00:31:08;52.57;;;26.77;;
13185;SDS011;6658;53.080;7.428;2022-12-18T00:33:36;51.20;;;25.73;;
13185;SDS011;6658;53.080;7.428;2022-12-18T00:36:06;50.77;;;25.83;;
13185;SDS011;6658;53.080;7.428;2022-12-18T00:38:34;47.80;;;26.03;;
13185;SDS011;6658;53.080;7.428;2022-12-18T00:41:00;48.17;;;25.10;;
13185;SDS011;6658;53.080;7.428;2022-12-18T00:43:26;47.03;;;25.50;;
13185;SDS011;6658;53.080;7.428;2022-12-18T00:45:52;46.47;;;24.63;;
13185;SDS011;6658;53.080;7.428;2022-12-18T00:48:18;45.50;;;24.17;;
13185;SDS011;6658;53.080;7.428;2022-12-18T00:50:43;52.80;;;26.53;;
13185;SDS011;6658;53.080;7.428;2022-12-18T00:53:09;46.03;;;24.77;;
13185;SDS011;6658;53.080;7.428;2022-12-18T00:55:36;52.30;;;26.33;;
13185;SDS011;6658;53.080;7.428;2022-12-18T00:58:04;51.93;;;25.20;;
13185;SDS011;6658;53.080;7.428;2022-12-18T01:00:30;52.40;;;27.33;;
13185;SDS011;6658;53.080;7.428;2022-12-18T01:02:55;50.10;;;25.67;;
13185;SDS011;6658;53.080;7.428;2022-12-18T01:05:21;47.17;;;26.67;;
13185;SDS011;6658;53.080;7.428;2022-12-18T01:07:47;50.77;;;26.37;;
13185;SDS011;6658;53.080;7.428;2022-12-18T01:10:12;50.93;;;25.80;;
13185;SDS011;6658;53.080;7.428;2022-12-18T01:12:38;42.70;;;24.10;;
13185;SDS011;6658;53.080;7.428;2022-12-18T01:15:05;49.00;;;25.27;;
13185;SDS011;6658;53.080;7.428;2022-12-18T01:17:32;54.50;;;26.83;;
13185;SDS011;6658;53.080;7.428;2022-12-18T01:19:58;44.10;;;23.97;;
13185;SDS011;6658;53.080;7.428;2022-12-18T01:22:24;48.03;;;24.80;;
13185;SDS011;6658;53.080;7.428;2022-12-18T01:24:49;51.90;;;25.23;;
13185;SDS011;6658;53.080;7.428;2022-12-18T01:27:15;49.33;;;26.20;;
13185;SDS011;6658;53.080;7.428;2022-12-18T01:29:41;50.63;;;25.20;;
13185;SDS011;6658;53.080;7.428;2022-12-18T01:32:07;52.00;;;26.07;;
13185;SDS011;6658;53.080;7.428;2022-12-18T01:34:35;53.93;;;26.20;;
13185;SDS011;6658;53.080;7.428;2022-12-18T01:37:02;56.03;;;27.20;;
13185;SDS011;6658;53.080;7.428;2022-12-18T01:39:29;51.17;;;25.77;;
13185;SDS011;6658;53.080;7.428;2022-12-18T01:41:56;52.03;;;26.00;;
13185;SDS011;6658;53.080;7.428;2022-12-18T01:49:51;55.63;;;27.67;;
13185;SDS011;6658;53.080;7.428;2022-12-18T01:52:17;49.77;;;26.80;;
13185;SDS011;6658;53.080;7.428;2022-12-18T01:54:45;56.43;;;26.50;;
13185;SDS011;6658;53.080;7.428;2022-12-18T01:57:11;51.77;;;28.20;;
13185;SDS011;6658;53.080;7.428;2022-12-18T01:59:37;54.13;;;25.87;;
13185;SDS011;6658;53.080;7.428;2022-12-18T02:02:06;49.60;;;25.07;;
13185;SDS011;6658;53.080;7.428;2022-12-18T02:04:32;56.80;;;28.40;;
13185;SDS011;6658;53.080;7.428;2022-12-18T02:07:04;51.17;;;26.70;;
13185;SDS011;6658;53.080;7.428;2022-12-18T02:12:28;55.43;;;28.67;;
13185;SDS011;6658;53.080;7.428;2022-12-18T02:15:13;52.93;;;26.37;;
13185;SDS011;6658;53.080;7.428;2022-12-18T02:17:50;60.70;;;28.20;;
13185;SDS011;6658;53.080;7.428;2022-12-18T02:20:34;54.60;;;28.00;;
13185;SDS011;6658;53.080;7.428;2022-12-18T02:28:41;57.13;;;26.77;;
13185;SDS011;6658;53.080;7.428;2022-12-18T02:31:11;56.00;;;26.97;;
13185;SDS011;6658;53.080;7.428;2022-12-18T02:33:43;54.23;;;26.80;;
13185;SDS011;6658;53.080;7.428;2022-12-18T02:36:10;52.73;;;27.07;;
13185;SDS011;6658;53.080;7.428;2022-12-18T02:38:39;65.23;;;28.57;;
13185;SDS011;6658;53.080;7.428;2022-12-18T02:41:06;57.70;;;28.07;;
13185;SDS011;6658;53.080;7.428;2022-12-18T02:43:32;55.63;;;26.43;;
13185;SDS011;6658;53.080;7.428;2022-12-18T02:45:59;60.80;;;27.20;;
13185;SDS011;6658;53.080;7.428;2022-12-18T02:48:31;57.70;;;27.20;;
13185;SDS011;6658;53.080;7.428;2022-12-18T02:53:45;56.40;;;27.47;;
13185;SDS011;6658;53.080;7.428;2022-12-18T02:56:31;57.87;;;27.23;;
13185;SDS011;6658;53.080;7.428;2022-12-18T02:59:05;59.60;;;27.87;;
13185;SDS011;6658;53.080;7.428;2022-12-18T03:01:50;60.03;;;26.90;;
13185;SDS011;6658;53.080;7.428;2022-12-18T03:04:27;60.00;;;28.17;;
13185;SDS011;6658;53.080;7.428;2022-12-18T03:06:59;60.17;;;28.23;;
13185;SDS011;6658;53.080;7.428;2022-12-18T03:09:30;59.23;;;27.57;;
13185;SDS011;6658;53.080;7.428;2022-12-18T03:12:22;60.30;;;28.27;;
13185;SDS011;6658;53.080;7.428;2022-12-18T03:14:59;61.03;;;28.40;;
13185;SDS011;6658;53.080;7.428;2022-12-18T03:17:35;59.13;;;27.30;;
13185;SDS011;6658;53.080;7.428;2022-12-18T03:20:07;56.97;;;27.30;;
13185;SDS011;6658;53.080;7.428;2022-12-18T03:22:39;59.57;;;28.77;;
13185;SDS011;6658;53.080;7.428;2022-12-18T03:25:09;61.10;;;28.77;;
13185;SDS011;6658;53.080;7.428;2022-12-18T03:27:39;63.63;;;29.97;;
13185;SDS011;6658;53.080;7.428;2022-12-18T03:30:12;54.77;;;28.90;;
13185;SDS011;6658;53.080;7.428;2022-12-18T03:35:40;60.17;;;29.13;;
13185;SDS011;6658;53.080;7.428;2022-12-18T03:38:07;60.77;;;29.33;;
13185;SDS011;6658;53.080;7.428;2022-12-18T03:43:17;63.53;;;28.37;;
13185;SDS011;6658;53.080;7.428;2022-12-18T03:46:07;60.63;;;27.37;;
13185;SDS011;6658;53.080;7.428;2022-12-18T03:48:47;59.13;;;28.67;;
13185;SDS011;6658;53.080;7.428;2022-12-18T03:51:18;63.90;;;29.97;;
13185;SDS011;6658;53.080;7.428;2022-12-18T03:54:00;56.87;;;28.00;;
13185;SDS011;6658;53.080;7.428;2022-12-18T03:56:29;63.43;;;28.10;;
13185;SDS011;6658;53.080;7.428;2022-12-18T03:58:58;59.50;;;27.67;;
13185;SDS011;6658;53.080;7.428;2022-12-18T04:01:30;61.77;;;27.20;;
13185;SDS011;6658;53.080;7.428;2022-12-18T04:03:59;65.43;;;28.07;;
13185;SDS011;6658;53.080;7.428;2022-12-18T04:06:27;62.50;;;26.20;;
13185;SDS011;6658;53.080;7.428;2022-12-18T04:08:53;56.37;;;28.50;;
13185;SDS011;6658;53.080;7.428;2022-12-18T04:11:19;58.83;;;27.93;;
13185;SDS011;6658;53.080;7.428;2022-12-18T04:13:45;59.07;;;28.40;;
13185;SDS011;6658;53.080;7.428;2022-12-18T04:16:11;60.40;;;28.43;;
13185;SDS011;6658;53.080;7.428;2022-12-18T04:18:36;61.13;;;28.20;;
13185;SDS011;6658;53.080;7.428;2022-12-18T04:21:02;59.20;;;27.97;;
13185;SDS011;6658;53.080;7.428;2022-12-18T04:23:28;59.87;;;29.37;;
13185;SDS011;6658;53.080;7.428;2022-12-18T04:25:54;55.43;;;25.23;;
13185;SDS011;6658;53.080;7.428;2022-12-18T04:28:23;59.47;;;26.90;;
13185;SDS011;6658;53.080;7.428;2022-12-18T04:30:48;52.80;;;26.70;;
13185;SDS011;6658;53.080;7.428;2022-12-18T04:33:14;58.03;;;27.23;;
13185;SDS011;6658;53.080;7.428;2022-12-18T04:35:40;53.83;;;26.53;;
13185;SDS011;6658;53.080;7.428;2022-12-18T04:38:07;55.97;;;25.77;;
13185;SDS011;6658;53.080;7.428;2022-12-18T04:40:33;56.50;;;25.60;;
13185;SDS011;6658;53.080;7.428;2022-12-18T04:42:59;48.77;;;23.57;;
13185;SDS011;6658;53.080;7.428;2022-12-18T04:45:25;49.57;;;24.27;;
13185;SDS011;6658;53.080;7.428;2022-12-18T04:47:50;51.43;;;23.87;;
13185;SDS011;6658;53.080;7.428;2022-12-18T04:50:16;52.63;;;25.40;;
13185;SDS011;6658;53.080;7.428;2022-12-18T04:52:42;55.70;;;24.70;;
13185;SDS011;6658;53.080;7.428;2022-12-18T04:55:07;45.13;;;22.63;;
13185;SDS011;6658;53.080;7.428;2022-12-18T04:57:33;56.17;;;26.10;;
13185;SDS011;6658;53.080;7.428;2022-12-18T04:59:59;48.73;;;24.83;;
13185;SDS011;6658;53.080;7.428;2022-12-18T05:02:24;51.20;;;24.17;;
13185;SDS011;6658;53.080;7.428;2022-12-18T05:04:50;45.73;;;22.83;;
13185;SDS011;6658;53.080;7.428;2022-12-18T05:07:16;46.43;;;23.97;;
13185;SDS011;6658;53.080;7.428;2022-12-18T05:09:41;45.10;;;22.93;;
13185;SDS011;6658;53.080;7.428;2022-12-18T05:12:07;45.57;;;23.57;;
13185;SDS011;6658;53.080;7.428;2022-12-18T05:14:33;38.33;;;22.60;;
13185;SDS011;6658;53.080;7.428;2022-12-18T05:17:02;41.10;;;21.83;;
13185;SDS011;6658;53.080;7.428;2022-12-18T05:19:28;39.90;;;22.00;;
13185;SDS011;6658;53.080;7.428;2022-12-18T05:21:53;40.03;;;22.50;;
13185;SDS011;6658;53.080;7.428;2022-12-18T05:24:19;41.77;;;22.67;;
13185;SDS011;6658;53.080;7.428;2022-12-18T05:26:45;40.43;;;21.13;;
13185;SDS011;6658;53.080;7.428;2022-12-18T05:29:11;40.10;;;22.63;;
13185;SDS011;6658;53.080;7.428;2022-12-18T05:31:37;40.97;;;21.97;;
13185;SDS011;6658;53.080;7.428;2022-12-18T05:34:03;35.57;;;21.03;;
13185;SDS011;6658;53.080;7.428;2022-12-18T05:36:29;39.77;;;21.13;;
13185;SDS011;6658;53.080;7.428;2022-12-18T05:38:55;41.03;;;22.20;;
13185;SDS011;6658;53.080;7.428;2022-12-18T05:41:21;40.43;;;22.80;;
13185;SDS011;6658;53.080;7.428;2022-12-18T05:43:46;39.57;;;21.90;;
13185;SDS011;6658;53.080;7.428;2022-12-18T05:46:13;42.00;;;22.50;;
13185;SDS011;6658;53.080;7.428;2022-12-18T05:48:41;39.70;;;22.67;;
13185;SDS011;6658;53.080;7.428;2022-12-18T05:51:08;42.53;;;22.40;;
13185;SDS011;6658;53.080;7.428;2022-12-18T05:53:36;44.33;;;22.07;;
13185;SDS011;6658;53.080;7.428;2022-12-18T05:56:03;41.40;;;21.47;;
13185;SDS011;6658;53.080;7.428;2022-12-18T05:58:30;43.07;;;23.23;;
13185;SDS011;6658;53.080;7.428;2022-12-18T06:00:56;39.30;;;22.83;;
13185;SDS011;6658;53.080;7.428;2022-12-18T06:03:22;45.17;;;22.40;;
13185;SDS011;6658;53.080;7.428;2022-12-18T06:05:48;39.93;;;21.67;;
13185;SDS011;6658;53.080;7.428;2022-12-18T06:08:14;44.43;;;22.20;;
13185;SDS011;6658;53.080;7.428;2022-12-18T06:10:40;39.43;;;22.93;;
13185;SDS011;6658;53.080;7.428;2022-12-18T06:13:06;42.00;;;21.67;;
13185;SDS011;6658;53.080;7.428;2022-12-18T06:15:32;33.80;;;20.53;;
13185;SDS011;6658;53.080;7.428;2022-12-18T06:18:00;39.17;;;21.27;;
13185;SDS011;6658;53.080;7.428;2022-12-18T06:20:26;37.93;;;21.07;;
13185;SDS011;6658;53.080;7.428;2022-12-18T06:22:52;36.60;;;21.20;;
13185;SDS011;6658;53.080;7.428;2022-12-18T06:25:18;35.77;;;20.77;;
13185;SDS011;6658;53.080;7.428;2022-12-18T06:27:43;34.73;;;20.30;;
13185;SDS011;6658;53.080;7.428;2022-12-18T06:30:09;38.93;;;20.60;;
13185;SDS011;6658;53.080;7.428;2022-12-18T06:32:35;38.33;;;20.67;;
13185;SDS011;6658;53.080;7.428;2022-12-18T06:35:01;41.20;;;22.80;;
13185;SDS011;6658;53.080;7.428;2022-12-18T06:37:26;38.60;;;21.80;;
13185;SDS011;6658;53.080;7.428;2022-12-18T06:39:53;33.90;;;20.17;;
13185;SDS011;6658;53.080;7.428;2022-12-18T06:42:22;35.37;;;20.07;;
13185;SDS011;6658;53.080;7.428;2022-12-18T06:44:48;38.47;;;20.87;;
13185;SDS011;6658;53.080;7.428;2022-12-18T06:47:14;38.20;;;21.37;;
13185;SDS011;6658;53.080;7.428;2022-12-18T06:49:40;33.67;;;19.27;;
13185;SDS011;6658;53.080;7.428;2022-12-18T06:52:05;36.10;;;19.30;;
13185;SDS011;6658;53.080;7.428;2022-12-18T06:54:31;32.73;;;20.03;;
13185;SDS011;6658;53.080;7.428;2022-12-18T06:56:56;31.97;;;20.70;;
13185;SDS011;6658;53.080;7.428;2022-12-18T06:59:22;37.33;;;19.67;;
13185;SDS011;6658;53.080;7.428;2022-12-18T07:01:48;37.93;;;21.43;;
13185;SDS011;6658;53.080;7.428;2022-12-18T07:04:13;35.07;;;19.13;;
13185;SDS011;6658;53.080;7.428;2022-12-18T07:06:39;33.30;;;19.30;;
13185;SDS011;6658;53.080;7.428;2022-12-18T07:09:05;32.03;;;19.30;;
13185;SDS011;6658;53.080;7.428;2022-12-18T07:11:32;34.57;;;20.07;;
13185;SDS011;6658;53.080;7.428;2022-12-18T07:14:01;31.97;;;19.43;;
13185;SDS011;6658;53.080;7.428;2022-12-18T07:16:26;28.57;;;18.60;;
13185;SDS011;6658;53.080;7.428;2022-12-18T07:18:54;29.37;;;17.13;;
13185;SDS011;6658;53.080;7.428;2022-12-18T07:21:20;28.07;;;18.07;;
13185;SDS011;6658;53.080;7.428;2022-12-18T07:23:47;33.23;;;17.87;;
13185;SDS011;6658;53.080;7.428;2022-12-18T07:26:13;30.53;;;17.60;;
13185;SDS011;6658;53.080;7.428;2022-12-18T07:28:41;29.67;;;18.50;;
13185;SDS011;6658;53.080;7.428;2022-12-18T07:31:08;27.27;;;17.87;;
13185;SDS011;6658;53.080;7.428;2022-12-18T07:33:36;26.73;;;17.57;;
13185;SDS011;6658;53.080;7.428;2022-12-18T07:36:02;29.07;;;17.30;;
13185;SDS011;6658;53.080;7.428;2022-12-18T07:38:29;27.27;;;18.13;;
13185;SDS011;6658;53.080;7.428;2022-12-18T07:41:02;28.13;;;17.27;;
13185;SDS011;6658;53.080;7.428;2022-12-18T07:43:38;30.43;;;17.27;;
13185;SDS011;6658;53.080;7.428;2022-12-18T07:46:05;27.90;;;17.47;;
13185;SDS011;6658;53.080;7.428;2022-12-18T07:48:31;30.00;;;17.77;;
13185;SDS011;6658;53.080;7.428;2022-12-18T07:50:58;24.63;;;15.73;;
13185;SDS011;6658;53.080;7.428;2022-12-18T07:53:27;22.80;;;15.57;;
13185;SDS011;6658;53.080;7.428;2022-12-18T07:56:00;23.30;;;13.87;;
13185;SDS011;6658;53.080;7.428;2022-12-18T07:58:30;22.77;;;14.33;;
13185;SDS011;6658;53.080;7.428;2022-12-18T08:01:06;23.30;;;14.50;;
13185;SDS011;6658;53.080;7.428;2022-12-18T08:03:33;18.70;;;12.87;;
13185;SDS011;6658;53.080;7.428;2022-12-18T08:06:00;18.70;;;14.17;;
13185;SDS011;6658;53.080;7.428;2022-12-18T08:08:26;26.50;;;14.17;;
13185;SDS011;6658;53.080;7.428;2022-12-18T08:10:52;24.03;;;14.37;;
13185;SDS011;6658;53.080;7.428;2022-12-18T08:13:18;25.00;;;15.50;;
13185;SDS011;6658;53.080;7.428;2022-12-18T08:15:44;20.73;;;14.13;;
13185;SDS011;6658;53.080;7.428;2022-12-18T08:18:09;21.53;;;14.40;;
13185;SDS011;6658;53.080;7.428;2022-12-18T08:20:35;18.50;;;12.43;;
13185;SDS011;6658;53.080;7.428;2022-12-18T08:23:00;18.40;;;12.33;;
13185;SDS011;6658;53.080;7.428;2022-12-18T08:25:26;17.87;;;12.33;;
13185;SDS011;6658;53.080;7.428;2022-12-18T08:27:52;17.20;;;12.23;;
13185;SDS011;6658;53.080;7.428;2022-12-18T08:30:17;19.73;;;12.77;;
13185;SDS011;6658;53.080;7.428;2022-12-18T08:32:43;22.23;;;11.97;;
13185;SDS011;6658;53.080;7.428;2022-12-18T08:35:09;21.10;;;13.70;;
13185;SDS011;6658;53.080;7.428;2022-12-18T08:37:36;20.17;;;12.20;;
13185;SDS011;6658;53.080;7.428;2022-12-18T08:40:02;19.40;;;12.67;;
13185;SDS011;6658;53.080;7.428;2022-12-18T08:42:28;19.77;;;12.17;;
13185;SDS011;6658;53.080;7.428;2022-12-18T08:45:13;20.20;;;12.10;;
13185;SDS011;6658;53.080;7.428;2022-12-18T08:47:38;16.23;;;11.83;;
13185;SDS011;6658;53.080;7.428;2022-12-18T08:50:08;15.50;;;11.70;;
13185;SDS011;6658;53.080;7.428;2022-12-18T08:52:34;15.87;;;10.07;;
13185;SDS011;6658;53.080;7.428;2022-12-18T08:55:00;14.57;;;10.47;;
13185;SDS011;6658;53.080;7.428;2022-12-18T08:57:25;16.63;;;11.83;;
13185;SDS011;6658;53.080;7.428;2022-12-18T08:59:51;15.97;;;11.07;;
13185;SDS011;6658;53.080;7.428;2022-12-18T09:02:17;13.93;;;9.83;;
13185;SDS011;6658;53.080;7.428;2022-12-18T09:04:42;13.13;;;10.17;;
13185;SDS011;6658;53.080;7.428;2022-12-18T09:07:08;14.97;;;10.07;;
13185;SDS011;6658;53.080;7.428;2022-12-18T09:09:34;12.90;;;9.40;;
13185;SDS011;6658;53.080;7.428;2022-12-18T09:12:00;12.83;;;9.13;;
13185;SDS011;6658;53.080;7.428;2022-12-18T09:14:26;10.57;;;8.83;;
13185;SDS011;6658;53.080;7.428;2022-12-18T09:16:51;11.30;;;9.30;;
13185;SDS011;6658;53.080;7.428;2022-12-18T09:19:17;11.37;;;9.43;;
13185;SDS011;6658;53.080;7.428;2022-12-18T09:21:43;10.17;;;8.70;;
13185;SDS011;6658;53.080;7.428;2022-12-18T09:24:10;11.20;;;9.37;;
13185;SDS011;6658;53.080;7.428;2022-12-18T09:26:38;10.33;;;8.63;;
13185;SDS011;6658;53.080;7.428;2022-12-18T09:29:04;13.87;;;9.27;;
13185;SDS011;6658;53.080;7.428;2022-12-18T09:31:32;10.73;;;8.73;;
13185;SDS011;6658;53.080;7.428;2022-12-18T09:33:58;11.23;;;8.47;;
13185;SDS011;6658;53.080;7.428;2022-12-18T09:36:24;9.53;;;8.53;;
13185;SDS011;6658;53.080;7.428;2022-12-18T09:38:50;12.20;;;8.00;;
13185;SDS011;6658;53.080;7.428;2022-12-18T09:49:44;9.50;;;7.67;;
13185;SDS011;6658;53.080;7.428;2022-12-18T09:52:16;8.37;;;7.47;;
13185;SDS011;6658;53.080;7.428;2022-12-18T09:54:53;9.73;;;7.70;;
13185;SDS011;6658;53.080;7.428;2022-12-18T09:57:24;10.13;;;7.63;;
13185;SDS011;6658;53.080;7.428;2022-12-18T09:59:58;9.17;;;6.97;;
13185;SDS011;6658;53.080;7.428;2022-12-18T10:02:30;9.13;;;7.17;;
13185;SDS011;6658;53.080;7.428;2022-12-18T10:05:02;7.87;;;6.47;;
13185;SDS011;6658;53.080;7.428;2022-12-18T10:08:02;9.30;;;7.23;;
13185;SDS011;6658;53.080;7.428;2022-12-18T10:10:36;10.00;;;6.93;;
13185;SDS011;6658;53.080;7.428;2022-12-18T10:27:15;7.43;;;5.93;;
13185;SDS011;6658;53.080;7.428;2022-12-18T10:29:42;8.70;;;6.50;;
13185;SDS011;6658;53.080;7.428;2022-12-18T10:32:15;6.93;;;5.80;;
13185;SDS011;6658;53.080;7.428;2022-12-18T10:34:45;8.80;;;6.50;;
13185;SDS011;6658;53.080;7.428;2022-12-18T10:37:18;6.93;;;5.53;;
13185;SDS011;6658;53.080;7.428;2022-12-18T10:39:46;7.33;;;5.73;;
13185;SDS011;6658;53.080;7.428;2022-12-18T10:42:33;5.93;;;5.20;;
13185;SDS011;6658;53.080;7.428;2022-12-18T10:47:35;6.67;;;5.47;;
13185;SDS011;6658;53.080;7.428;2022-12-18T10:50:10;6.20;;;5.60;;
13185;SDS011;6658;53.080;7.428;2022-12-18T10:52:59;7.87;;;5.13;;
13185;SDS011;6658;53.080;7.428;2022-12-18T10:55:27;5.87;;;4.83;;
13185;SDS011;6658;53.080;7.428;2022-12-18T11:06:08;8.10;;;4.97;;
13185;SDS011;6658;53.080;7.428;2022-12-18T11:08:36;6.40;;;5.13;;
13185;SDS011;6658;53.080;7.428;2022-12-18T11:11:03;7.20;;;5.57;;
13185;SDS011;6658;53.080;7.428;2022-12-18T11:13:32;9.77;;;5.63;;
13185;SDS011;6658;53.080;7.428;2022-12-18T11:15:58;7.10;;;5.50;;
13185;SDS011;6658;53.080;7.428;2022-12-18T11:18:28;7.23;;;5.23;;
13185;SDS011;6658;53.080;7.428;2022-12-18T11:21:04;8.33;;;6.00;;
13185;SDS011;6658;53.080;7.428;2022-12-18T11:23:36;6.80;;;5.90;;
13185;SDS011;6658;53.080;7.428;2022-12-18T11:26:08;8.37;;;5.57;;
13185;SDS011;6658;53.080;7.428;2022-12-18T11:33:44;9.97;;;7.63;;
13185;SDS011;6658;53.080;7.428;2022-12-18T11:36:34;7.03;;;6.33;;
13185;SDS011;6658;53.080;7.428;2022-12-18T11:44:39;7.57;;;5.50;;
13185;SDS011;6658;53.080;7.428;2022-12-18T11:47:27;8.73;;;5.47;;
13185;SDS011;6658;53.080;7.428;2022-12-18T11:50:14;6.40;;;5.67;;
13185;SDS011;6658;53.080;7.428;2022-12-18T11:52:43;6.07;;;5.47;;
13185;SDS011;6658;53.080;7.428;2022-12-18T11:55:13;7.47;;;6.63;;
13185;SDS011;6658;53.080;7.428;2022-12-18T12:00:22;7.43;;;5.27;;
13185;SDS011;6658;53.080;7.428;2022-12-18T12:11:15;6.20;;;5.27;;
13185;SDS011;6658;53.080;7.428;2022-12-18T12:22:36;6.40;;;5.70;;
13185;SDS011;6658;53.080;7.428;2022-12-18T12:31:32;6.80;;;5.47;;
13185;SDS011;6658;53.080;7.428;2022-12-18T12:39:51;8.53;;;5.87;;
13185;SDS011;6658;53.080;7.428;2022-12-18T12:42:35;7.03;;;5.27;;
13185;SDS011;6658;53.080;7.428;2022-12-18T12:45:32;6.70;;;5.43;;
13185;SDS011;6658;53.080;7.428;2022-12-18T12:48:00;6.77;;;5.40;;
13185;SDS011;6658;53.080;7.428;2022-12-18T12:50:28;6.63;;;5.60;;
13185;SDS011;6658;53.080;7.428;2022-12-18T12:52:58;8.47;;;6.17;;
13185;SDS011;6658;53.080;7.428;2022-12-18T12:55:26;6.73;;;5.93;;
13185;SDS011;6658;53.080;7.428;2022-12-18T12:58:15;7.17;;;5.53;;
13185;SDS011;6658;53.080;7.428;2022-12-18T13:00:54;7.57;;;5.17;;
13185;SDS011;6658;53.080;7.428;2022-12-18T13:03:46;6.17;;;5.57;;
13185;SDS011;6658;53.080;7.428;2022-12-18T13:06:25;8.63;;;5.80;;
13185;SDS011;6658;53.080;7.428;2022-12-18T13:14:27;7.13;;;6.07;;
13185;SDS011;6658;53.080;7.428;2022-12-18T13:19:41;6.57;;;5.83;;
13185;SDS011;6658;53.080;7.428;2022-12-18T13:22:24;9.00;;;5.50;;
13185;SDS011;6658;53.080;7.428;2022-12-18T13:24:54;7.13;;;5.93;;
13185;SDS011;6658;53.080;7.428;2022-12-18T13:40:57;7.07;;;5.10;;
13185;SDS011;6658;53.080;7.428;2022-12-18T13:43:31;6.90;;;5.50;;
13185;SDS011;6658;53.080;7.428;2022-12-18T13:46:06;5.90;;;4.70;;
13185;SDS011;6658;53.080;7.428;2022-12-18T13:48:47;6.13;;;5.40;;
13185;SDS011;6658;53.080;7.428;2022-12-18T13:51:42;9.00;;;5.40;;
13185;SDS011;6658;53.080;7.428;2022-12-18T13:54:18;7.57;;;5.57;;
13185;SDS011;6658;53.080;7.428;2022-12-18T13:56:47;7.57;;;5.67;;
13185;SDS011;6658;53.080;7.428;2022-12-18T14:01:45;7.77;;;4.93;;
13185;SDS011;6658;53.080;7.428;2022-12-18T14:04:20;5.70;;;4.93;;
13185;SDS011;6658;53.080;7.428;2022-12-18T14:07:04;6.20;;;4.47;;
13185;SDS011;6658;53.080;7.428;2022-12-18T14:09:36;7.13;;;4.97;;
13185;SDS011;6658;53.080;7.428;2022-12-18T14:12:04;6.63;;;5.13;;
13185;SDS011;6658;53.080;7.428;2022-12-18T14:14:49;7.20;;;5.60;;
13185;SDS011;6658;53.080;7.428;2022-12-18T14:17:17;6.70;;;5.17;;
13185;SDS011;6658;53.080;7.428;2022-12-18T14:19:47;6.00;;;5.40;;
13185;SDS011;6658;53.080;7.428;2022-12-18T14:22:16;7.23;;;5.33;;
13185;SDS011;6658;53.080;7.428;2022-12-18T14:24:44;7.37;;;5.37;;
13185;SDS011;6658;53.080;7.428;2022-12-18T14:27:22;6.80;;;5.07;;
13185;SDS011;6658;53.080;7.428;2022-12-18T14:29:50;8.13;;;5.83;;
13185;SDS011;6658;53.080;7.428;2022-12-18T14:32:17;7.67;;;5.57;;
13185;SDS011;6658;53.080;7.428;2022-12-18T14:34:47;6.50;;;4.80;;
13185;SDS011;6658;53.080;7.428;2022-12-18T14:37:23;8.00;;;4.90;;
13185;SDS011;6658;53.080;7.428;2022-12-18T14:39:57;6.03;;;5.43;;
13185;SDS011;6658;53.080;7.428;2022-12-18T14:42:30;8.00;;;4.80;;
13185;SDS011;6658;53.080;7.428;2022-12-18T14:47:59;6.03;;;4.93;;
13185;SDS011;6658;53.080;7.428;2022-12-18T14:50:25;7.00;;;4.87;;
13185;SDS011;6658;53.080;7.428;2022-12-18T14:52:51;6.03;;;5.10;;
13185;SDS011;6658;53.080;7.428;2022-12-18T14:55:18;8.03;;;5.13;;
13185;SDS011;6658;53.080;7.428;2022-12-18T14:57:45;6.33;;;5.10;;
13185;SDS011;6658;53.080;7.428;2022-12-18T15:00:17;7.63;;;5.67;;
13185;SDS011;6658;53.080;7.428;2022-12-18T15:02:45;6.80;;;5.60;;
13185;SDS011;6658;53.080;7.428;2022-12-18T15:05:25;8.27;;;5.80;;
13185;SDS011;6658;53.080;7.428;2022-12-18T15:07:55;9.17;;;6.33;;
13185;SDS011;6658;53.080;7.428;2022-12-18T15:10:24;11.07;;;5.90;;
13185;SDS011;6658;53.080;7.428;2022-12-18T15:25:56;5.90;;;4.60;;
13185;SDS011;6658;53.080;7.428;2022-12-18T15:28:36;6.83;;;5.83;;
13185;SDS011;6658;53.080;7.428;2022-12-18T15:33:35;5.40;;;4.70;;
13185;SDS011;6658;53.080;7.428;2022-12-18T15:36:04;6.10;;;4.60;;
13185;SDS011;6658;53.080;7.428;2022-12-18T15:38:34;4.83;;;3.90;;
13185;SDS011;6658;53.080;7.428;2022-12-18T15:41:00;7.30;;;4.10;;
13185;SDS011;6658;53.080;7.428;2022-12-18T15:43:29;5.40;;;4.43;;
13185;SDS011;6658;53.080;7.428;2022-12-18T15:46:06;4.93;;;4.03;;
13185;SDS011;6658;53.080;7.428;2022-12-18T15:48:34;5.43;;;4.10;;
13185;SDS011;6658;53.080;7.428;2022-12-18T15:51:04;5.07;;;4.00;;
13185;SDS011;6658;53.080;7.428;2022-12-18T15:53:36;6.57;;;5.10;;
13185;SDS011;6658;53.080;7.428;2022-12-18T15:56:04;4.77;;;4.10;;
13185;SDS011;6658;53.080;7.428;2022-12-18T15:58:52;5.40;;;3.63;;
13185;SDS011;6658;53.080;7.428;2022-12-18T16:01:18;6.47;;;3.63;;
13185;SDS011;6658;53.080;7.428;2022-12-18T16:03:46;6.57;;;4.67;;
13185;SDS011;6658;53.080;7.428;2022-12-18T16:06:11;4.03;;;3.33;;
13185;SDS011;6658;53.080;7.428;2022-12-18T16:08:37;5.57;;;4.43;;
13185;SDS011;6658;53.080;7.428;2022-12-18T16:11:03;4.70;;;3.80;;
13185;SDS011;6658;53.080;7.428;2022-12-18T16:13:28;5.80;;;4.77;;
13185;SDS011;6658;53.080;7.428;2022-12-18T16:15:54;5.80;;;4.13;;
13185;SDS011;6658;53.080;7.428;2022-12-18T16:18:20;7.00;;;4.53;;
13185;SDS011;6658;53.080;7.428;2022-12-18T16:20:46;5.07;;;3.60;;
13185;SDS011;6658;53.080;7.428;2022-12-18T16:23:12;5.30;;;3.53;;
13185;SDS011;6658;53.080;7.428;2022-12-18T16:25:38;5.40;;;3.97;;
13185;SDS011;6658;53.080;7.428;2022-12-18T16:28:03;4.03;;;3.37;;
13185;SDS011;6658;53.080;7.428;2022-12-18T16:30:30;6.83;;;3.23;;
13185;SDS011;6658;53.080;7.428;2022-12-18T16:32:56;4.27;;;3.73;;
13185;SDS011;6658;53.080;7.428;2022-12-18T16:35:23;5.53;;;3.70;;
13185;SDS011;6658;53.080;7.428;2022-12-18T16:37:49;4.60;;;3.73;;
13185;SDS011;6658;53.080;7.428;2022-12-18T16:40:16;3.77;;;3.20;;
13185;SDS011;6658;53.080;7.428;2022-12-18T16:42:43;3.97;;;3.03;;
13185;SDS011;6658;53.080;7.428;2022-12-18T16:45:10;4.97;;;3.97;;
13185;SDS011;6658;53.080;7.428;2022-12-18T16:47:37;4.47;;;3.37;;
13185;SDS011;6658;53.080;7.428;2022-12-18T16:50:03;6.70;;;4.17;;
13185;SDS011;6658;53.080;7.428;2022-12-18T16:52:30;4.67;;;3.30;;
13185;SDS011;6658;53.080;7.428;2022-12-18T16:54:56;4.17;;;3.33;;
13185;SDS011;6658;53.080;7.428;2022-12-18T16:57:21;5.20;;;3.57;;
13185;SDS011;6658;53.080;7.428;2022-12-18T16:59:47;4.10;;;3.70;;
13185;SDS011;6658;53.080;7.428;2022-12-18T17:02:18;4.40;;;3.60;;
13185;SDS011;6658;53.080;7.428;2022-12-18T17:04:45;7.57;;;3.87;;
13185;SDS011;6658;53.080;7.428;2022-12-18T17:07:11;4.07;;;2.80;;
13185;SDS011;6658;53.080;7.428;2022-12-18T17:09:37;4.43;;;3.70;;
13185;SDS011;6658;53.080;7.428;2022-12-18T17:12:03;3.80;;;2.97;;
13185;SDS011;6658;53.080;7.428;2022-12-18T17:14:29;5.93;;;3.57;;
13185;SDS011;6658;53.080;7.428;2022-12-18T17:16:56;4.23;;;3.13;;
13185;SDS011;6658;53.080;7.428;2022-12-18T17:19:22;4.33;;;3.83;;
13185;SDS011;6658;53.080;7.428;2022-12-18T17:21:49;4.33;;;3.50;;